Time;durP1;ratioP1;P1;durP2;ratioP2;P2;SDS_P1;SDS_P2;PMS_P1;PMS_P2;Temp;Humidity;BMP_temperature;BMP_pressure;BME280_temperature;BME280_humidity;BME280_pressure;Samples;Min_cycle;Max_cycle;Signal;HPM_P1;HPM_P2
2021/05/23 00:00:24;;;;;;;;;;;8.70;99.90;;;;;;5072385;28;19908;-81
2021/05/23 00:02:50;;;;;;;;;;;8.60;99.90;;;;;;5071936;28;19908;-81
2021/05/23 00:05:17;;;;;;;;;;;8.50;99.90;;;;;;5072202;28;19904;-82
2021/05/23 00:07:49;;;;;;;;;;;8.40;99.90;;;;;;5071903;28;19908;-82
2021/05/23 00:10:16;;;;;;;;;;;8.30;99.90;;;;;;5071870;28;19904;-82
2021/05/23 00:12:42;;;;;;;;;;;8.10;99.90;;;;;;5072030;28;19909;-81
2021/05/23 00:15:08;;;;;;;;;;;8.00;99.90;;;;;;5071674;28;19909;-81
2021/05/23 00:17:33;;;;;;;;;;;7.90;99.90;;;;;;5071556;28;19920;-81
2021/05/23 00:19:59;;;;;;;;;;;7.80;99.90;;;;;;5071252;28;19927;-81
2021/05/23 00:22:25;;;;;;;;;;;7.80;99.90;;;;;;5071718;28;20398;-81
2021/05/23 00:24:50;;;;;;;;;;;7.80;99.90;;;;;;5071703;28;19904;-81
2021/05/23 00:27:16;;;;;;;;;;;7.70;99.90;;;;;;5071421;28;20724;-81
2021/05/23 00:29:41;;;;;;;;;;;7.80;99.90;;;;;;5071536;28;19908;-81
2021/05/23 00:32:07;;;;;;;;;;;7.70;99.90;;;;;;5070698;28;19913;-81
2021/05/23 00:34:33;;;;;;;;;;;7.70;99.90;;;;;;5071824;28;19908;-81
2021/05/23 00:36:59;;;;;;;;;;;7.70;99.90;;;;;;5071472;28;19967;-81
2021/05/23 00:39:24;;;;;;;;;;;7.60;99.90;;;;;;5071401;28;19908;-81
2021/05/23 00:41:50;;;;;;;;;;;7.60;99.90;;;;;;5070024;28;19954;-81
2021/05/23 00:44:15;;;;;;;;;;;7.60;99.90;;;;;;5069761;28;19905;-81
2021/05/23 00:46:41;;;;;;;;;;;7.50;99.90;;;;;;5071208;28;19947;-81
2021/05/23 00:49:07;;;;;;;;;;;7.50;99.90;;;;;;5069865;28;20429;-81
2021/05/23 00:51:32;;;;;;;;;;;7.50;99.90;;;;;;5071230;28;20372;-81
2021/05/23 00:53:58;;;;;;;;;;;7.50;99.90;;;;;;5069878;28;19908;-81
2021/05/23 00:56:24;;;;;;;;;;;7.40;99.90;;;;;;5070983;28;20550;-81
2021/05/23 00:58:49;;;;;;;;;;;7.30;99.90;;;;;;5070973;28;19909;-81
2021/05/23 01:01:35;;;;;;;;;;;7.30;99.90;;;;;;5070883;28;19953;-81
2021/05/23 01:04:00;;;;;;;;;;;7.20;99.90;;;;;;5070844;28;19908;-80
2021/05/23 01:06:26;;;;;;;;;;;7.10;99.90;;;;;;5070585;28;20284;-81
2021/05/23 01:08:52;;;;;;;;;;;7.00;99.90;;;;;;5070912;28;20368;-80
2021/05/23 01:11:18;;;;;;;;;;;7.00;99.90;;;;;;5070862;28;19953;-80
2021/05/23 01:13:43;;;;;;;;;;;7.00;86.20;;;;;;5069406;28;20284;-80
2021/05/23 01:16:11;;;;;;;;;;;6.90;92.30;;;;;;5070614;28;19908;-80
2021/05/23 01:18:45;;;;;;;;;;;6.90;99.90;;;;;;5069879;28;19923;-80
2021/05/23 01:21:11;;;;;;;;;;;6.80;57.30;;;;;;5070811;28;19911;-80
2021/05/23 01:23:41;;;;;;;;;;;6.90;99.90;;;;;;5069998;28;20283;-80
2021/05/23 01:26:09;;;;;;;;;;;6.90;1.00;;;;;;5070674;28;19915;-81
2021/05/23 01:28:37;;;;;;;;;;;6.90;99.90;;;;;;5068384;28;19995;-81
2021/05/23 01:31:05;;;;;;;;;;;6.80;99.90;;;;;;5068819;28;19910;-81
2021/05/23 01:33:31;;;;;;;;;;;6.70;99.90;;;;;;5055825;28;20003;-81
2021/05/23 01:35:57;;;;;;;;;;;6.60;99.90;;;;;;5050401;28;20726;-81
2021/05/23 01:38:24;;;;;;;;;;;6.60;99.90;;;;;;5050470;28;19904;-81
2021/05/23 01:40:50;;;;;;;;;;;6.60;99.90;;;;;;5048685;28;19908;-81
2021/05/23 01:43:16;;;;;;;;;;;6.70;1.00;;;;;;5049826;28;19904;-81
2021/05/23 01:45:41;;;;;;;;;;;6.70;44.10;;;;;;5048747;28;20391;-81
2021/05/23 01:48:07;;;;;;;;;;;6.50;95.50;;;;;;5050248;28;19912;-81
2021/05/23 01:50:34;;;;;;;;;;;6.50;99.90;;;;;;5063791;28;19904;-81
2021/05/23 01:53:01;;;;;;;;;;;6.60;99.90;;;;;;5069817;28;19927;-81
2021/05/23 01:55:27;;;;;;;;;;;6.70;99.90;;;;;;5070036;28;20291;-81
2021/05/23 01:57:53;;;;;;;;;;;6.60;1.00;;;;;;5069717;28;19940;-81
2021/05/23 02:00:24;;;;;;;;;;;6.60;89.80;;;;;;5070184;28;19947;-81
2021/05/23 02:02:49;;;;;;;;;;;6.50;99.90;;;;;;5069749;28;19970;-81
2021/05/23 02:05:15;;;;;;;;;;;6.60;99.90;;;;;;5069937;28;20352;-81
2021/05/23 02:07:41;;;;;;;;;;;6.60;99.90;;;;;;5069535;28;20006;-81
2021/05/23 02:10:08;;;;;;;;;;;6.70;1.00;;;;;;5069664;28;19958;-81
2021/05/23 02:12:33;;;;;;;;;;;6.70;1.00;;;;;;5069805;28;20004;-81
2021/05/23 02:15:03;;;;;;;;;;;6.90;1.00;;;;;;5069509;28;20018;-81
2021/05/23 02:17:29;;;;;;;;;;;6.80;1.00;;;;;;5069634;28;19916;-82
2021/05/23 02:19:55;;;;;;;;;;;6.80;1.00;;;;;;5069640;28;19916;-81
2021/05/23 02:22:20;;;;;;;;;;;6.90;1.00;;;;;;5068264;28;19911;-81
2021/05/23 02:24:46;;;;;;;;;;;7.10;96.20;;;;;;5068202;28;19987;-81
2021/05/23 02:27:12;;;;;;;;;;;7.20;1.00;;;;;;5067996;28;19915;-81
2021/05/23 02:29:38;;;;;;;;;;;7.20;25.00;;;;;;5069458;28;19912;-81
2021/05/23 02:32:04;;;;;;;;;;;7.30;95.00;;;;;;5067765;28;20455;-81
2021/05/23 02:34:30;;;;;;;;;;;7.20;3.40;;;;;;5069379;28;20316;-81
2021/05/23 02:36:57;;;;;;;;;;;7.00;99.90;;;;;;5069189;28;19923;-81
2021/05/23 02:39:23;;;;;;;;;;;7.20;20.40;;;;;;5068637;28;19978;-81
2021/05/23 02:41:48;;;;;;;;;;;7.20;99.90;;;;;;5069052;28;20407;-81
2021/05/23 02:44:14;;;;;;;;;;;7.30;1.00;;;;;;5068626;28;19987;-81
2021/05/23 02:46:42;;;;;;;;;;;7.30;58.40;;;;;;5069275;28;19904;-81
2021/05/23 02:49:08;;;;;;;;;;;7.20;99.90;;;;;;5086966;28;20063;-81
2021/05/23 02:51:34;;;;;;;;;;;7.10;99.90;;;;;;5088161;28;20474;-81
2021/05/23 02:54:01;;;;;;;;;;;6.90;21.30;;;;;;5089007;28;19907;-81
2021/05/23 02:56:26;;;;;;;;;;;6.50;99.90;;;;;;5089496;28;19904;-81
2021/05/23 02:58:52;;;;;;;;;;;6.10;99.90;;;;;;5089157;28;19911;-81
2021/05/23 03:01:18;;;;;;;;;;;5.90;99.90;;;;;;5089266;28;19915;-81
2021/05/23 03:03:43;;;;;;;;;;;5.90;99.90;;;;;;5089194;28;20019;-81
2021/05/23 03:06:09;;;;;;;;;;;6.00;99.90;;;;;;5089117;28;20272;-81
2021/05/23 03:08:35;;;;;;;;;;;6.00;99.90;;;;;;5087858;28;19916;-81
2021/05/23 03:11:00;;;;;;;;;;;6.40;99.90;;;;;;5089382;28;19912;-81
2021/05/23 03:13:26;;;;;;;;;;;6.50;1.00;;;;;;5088979;28;19904;-81
2021/05/23 03:15:51;;;;;;;;;;;6.80;99.90;;;;;;5089522;28;19904;-81
2021/05/23 03:18:17;;;;;;;;;;;6.80;16.30;;;;;;5089031;28;20371;-81
2021/05/23 03:20:43;;;;;;;;;;;6.80;99.90;;;;;;5074825;28;19905;-81
2021/05/23 03:23:09;;;;;;;;;;;6.70;99.90;;;;;;5068914;28;19912;-81
2021/05/23 03:25:35;;;;;;;;;;;6.50;99.90;;;;;;5068722;28;19940;-81
2021/05/23 03:28:01;;;;;;;;;;;6.00;99.90;;;;;;5069120;28;20002;-81
2021/05/23 03:30:28;;;;;;;;;;;5.80;99.90;;;;;;5068796;28;19908;-81
2021/05/23 03:32:54;;;;;;;;;;;5.80;99.90;;;;;;5068959;28;19919;-81
2021/05/23 03:35:20;;;;;;;;;;;5.70;99.90;;;;;;5069021;28;19908;-81
2021/05/23 03:37:46;;;;;;;;;;;5.70;99.90;;;;;;5068849;28;19911;-81
2021/05/23 03:40:14;;;;;;;;;;;5.60;99.90;;;;;;5068925;28;20685;-81
2021/05/23 03:42:40;;;;;;;;;;;5.80;99.90;;;;;;5068403;28;19983;-81
2021/05/23 03:45:07;;;;;;;;;;;6.10;99.90;;;;;;5068739;28;19908;-81
2021/05/23 03:47:33;;;;;;;;;;;6.20;99.90;;;;;;5068351;28;20724;-81
2021/05/23 03:49:59;;;;;;;;;;;6.00;99.90;;;;;;5068306;28;19915;-81
2021/05/23 03:52:24;;;;;;;;;;;5.80;99.90;;;;;;5071000;28;19969;-81
2021/05/23 03:54:50;;;;;;;;;;;5.80;99.90;;;;;;5071827;28;19916;-81
2021/05/23 03:57:15;;;;;;;;;;;5.60;99.90;;;;;;5072005;28;19923;-81
2021/05/23 03:59:41;;;;;;;;;;;5.50;99.90;;;;;;5070449;28;20360;-81
2021/05/23 04:02:07;;;;;;;;;;;5.60;99.90;;;;;;5072031;28;19905;-81
2021/05/23 04:04:46;;;;;;;;;;;5.60;99.90;;;;;;5071912;28;19905;-81
2021/05/23 04:07:12;;;;;;;;;;;5.70;99.90;;;;;;5050678;28;19908;-81
2021/05/23 04:09:38;;;;;;;;;;;5.60;99.90;;;;;;5052014;28;19939;-81
2021/05/23 04:12:04;;;;;;;;;;;5.60;99.90;;;;;;5052013;28;19909;-81
2021/05/23 04:14:30;;;;;;;;;;;5.40;99.90;;;;;;5052248;28;19955;-81
2021/05/23 04:16:55;;;;;;;;;;;5.40;99.90;;;;;;5051626;28;20430;-81
2021/05/23 04:19:21;;;;;;;;;;;5.20;99.90;;;;;;5052118;28;19962;-81
2021/05/23 04:21:47;;;;;;;;;;;5.20;99.90;;;;;;5050386;28;19999;-81
2021/05/23 04:24:12;;;;;;;;;;;5.20;99.90;;;;;;5051767;28;20291;-81
2021/05/23 04:26:38;;;;;;;;;;;5.20;99.90;;;;;;5050252;28;19908;-81
2021/05/23 04:29:03;;;;;;;;;;;5.20;99.90;;;;;;5051093;28;19913;-81
2021/05/23 04:31:29;;;;;;;;;;;5.20;99.90;;;;;;5058279;28;20386;-81
2021/05/23 04:33:55;;;;;;;;;;;5.10;99.90;;;;;;5071137;28;19963;-80
2021/05/23 04:36:20;;;;;;;;;;;5.20;99.90;;;;;;5071134;28;19904;-81
2021/05/23 04:38:48;;;;;;;;;;;5.20;99.90;;;;;;5070907;28;19940;-80
2021/05/23 04:41:14;;;;;;;;;;;5.20;99.90;;;;;;5071344;28;19904;-81
2021/05/23 04:43:39;;;;;;;;;;;5.80;99.90;;;;;;5071150;28;20532;-81
2021/05/23 04:46:05;;;;;;;;;;;6.40;25.00;;;;;;5070647;28;20034;-81
2021/05/23 04:48:31;;;;;;;;;;;7.10;1.00;;;;;;5071019;28;19916;-81
2021/05/23 04:50:56;;;;;;;;;;;7.50;1.00;;;;;;5070800;28;19994;-81
2021/05/23 04:53:22;;;;;;;;;;;8.30;99.90;;;;;;5071099;28;19905;-81
2021/05/23 04:55:47;;;;;;;;;;;8.70;99.90;;;;;;5069953;28;19909;-81
2021/05/23 04:58:13;;;;;;;;;;;9.00;99.90;;;;;;5070673;28;20408;-81
2021/05/23 05:00:38;;;;;;;;;;;9.50;99.90;;;;;;5071318;28;19908;-81
2021/05/23 05:03:04;;;;;;;;;;;10.30;99.90;;;;;;5068690;28;20015;-81
2021/05/23 05:05:30;;;;;;;;;;;10.90;99.90;;;;;;5071194;28;19905;-81
2021/05/23 05:07:55;;;;;;;;;;;11.50;99.90;;;;;;5070654;28;19912;-81
2021/05/23 05:10:21;;;;;;;;;;;10.90;99.90;;;;;;5071134;28;19905;-81
2021/05/23 05:12:47;;;;;;;;;;;10.50;99.90;;;;;;5071199;28;19908;-81
2021/05/23 05:15:12;;;;;;;;;;;10.40;99.90;;;;;;5071025;28;19939;-80
2021/05/23 05:17:38;;;;;;;;;;;10.90;99.90;;;;;;5069074;28;20383;-81
2021/05/23 05:20:05;;;;;;;;;;;11.40;99.90;;;;;;5070677;28;19908;-81
2021/05/23 05:22:31;;;;;;;;;;;12.70;99.90;;;;;;5070630;28;20598;-81
2021/05/23 05:24:56;;;;;;;;;;;12.80;99.90;;;;;;5070436;28;19904;-81
2021/05/23 05:27:25;;;;;;;;;;;12.40;99.90;;;;;;5070173;28;19927;-81
2021/05/23 05:29:51;;;;;;;;;;;13.00;99.90;;;;;;5070283;28;19908;-81
2021/05/23 05:32:16;;;;;;;;;;;13.90;99.90;;;;;;5069905;28;19908;-81
2021/05/23 05:34:42;;;;;;;;;;;15.20;99.90;;;;;;5069937;28;19915;-81
2021/05/23 05:37:07;;;;;;;;;;;15.20;99.90;;;;;;5070159;28;20425;-81
2021/05/23 05:39:33;;;;;;;;;;;14.80;99.90;;;;;;5069981;28;19944;-81
2021/05/23 05:41:59;;;;;;;;;;;14.10;99.90;;;;;;5070218;28;19918;-81
2021/05/23 05:44:25;;;;;;;;;;;12.80;99.90;;;;;;5068435;28;20429;-81
2021/05/23 05:46:51;;;;;;;;;;;12.70;99.90;;;;;;5070437;28;19935;-81
2021/05/23 05:49:17;;;;;;;;;;;13.70;99.90;;;;;;5070162;28;19904;-81
2021/05/23 05:51:42;;;;;;;;;;;14.40;99.90;;;;;;5069904;28;20031;-81
2021/05/23 05:54:08;;;;;;;;;;;14.30;99.90;;;;;;5070120;28;20634;-81
2021/05/23 05:56:34;;;;;;;;;;;14.00;99.90;;;;;;5070053;28;20676;-82
2021/05/23 05:59:00;;;;;;;;;;;14.40;99.90;;;;;;5070214;28;19908;-81
2021/05/23 06:01:25;;;;;;;;;;;14.50;99.90;;;;;;5070076;28;20276;-82
2021/05/23 06:03:51;;;;;;;;;;;13.90;99.90;;;;;;5069893;28;19911;-81
2021/05/23 06:06:16;;;;;;;;;;;13.50;99.90;;;;;;5070301;28;19904;-82
2021/05/23 06:08:42;;;;;;;;;;;13.90;99.90;;;;;;5069672;28;19908;-81
2021/05/23 06:11:08;;;;;;;;;;;13.60;99.90;;;;;;5072752;28;19908;-82
2021/05/23 06:13:33;;;;;;;;;;;14.00;99.90;;;;;;5089211;28;19908;-82
2021/05/23 06:15:59;;;;;;;;;;;14.50;99.90;;;;;;5089783;28;20398;-82
2021/05/23 06:18:25;;;;;;;;;;;15.70;99.90;;;;;;5089862;28;19920;-82
2021/05/23 06:20:51;;;;;;;;;;;16.60;99.90;;;;;;5088316;28;20054;-82
2021/05/23 06:23:17;;;;;;;;;;;17.20;99.90;;;;;;5088015;28;20393;-82
2021/05/23 06:25:42;;;;;;;;;;;18.40;99.90;;;;;;5090066;28;19904;-82
2021/05/23 06:28:08;;;;;;;;;;;17.60;99.90;;;;;;5089891;28;19947;-82
2021/05/23 06:30:33;;;;;;;;;;;17.50;99.90;;;;;;5089885;28;19949;-82
2021/05/23 06:32:59;;;;;;;;;;;17.90;99.90;;;;;;5079697;28;20790;-82
2021/05/23 06:35:25;;;;;;;;;;;18.30;99.90;;;;;;5069647;28;19919;-82
2021/05/23 06:37:50;;;;;;;;;;;18.90;99.90;;;;;;5069667;28;19989;-82
2021/05/23 06:40:16;;;;;;;;;;;18.80;99.90;;;;;;5068138;28;19904;-82
2021/05/23 06:42:42;;;;;;;;;;;19.60;99.90;;;;;;5069650;28;20527;-82
2021/05/23 06:45:07;;;;;;;;;;;19.60;99.90;;;;;;5069517;28;20276;-82
2021/05/23 06:47:33;;;;;;;;;;;19.20;99.90;;;;;;5069547;28;19961;-82
2021/05/23 06:49:59;;;;;;;;;;;19.50;99.90;;;;;;5068963;28;19908;-82
2021/05/23 06:52:26;;;;;;;;;;;21.30;99.90;;;;;;5069225;28;19909;-82
2021/05/23 06:54:52;;;;;;;;;;;21.40;99.90;;;;;;5069203;28;19904;-82
2021/05/23 06:57:17;;;;;;;;;;;22.00;99.90;;;;;;5067661;28;19915;-82
2021/05/23 06:59:43;;;;;;;;;;;21.80;99.90;;;;;;5069221;28;19923;-82
2021/05/23 07:02:08;;;;;;;;;;;21.00;99.90;;;;;;5068844;28;19922;-82
2021/05/23 07:04:34;;;;;;;;;;;22.30;99.90;;;;;;5069039;28;19908;-82
2021/05/23 07:07:00;;;;;;;;;;;19.10;99.90;;;;;;5068891;28;19912;-82
2021/05/23 07:09:25;;;;;;;;;;;16.40;99.90;;;;;;5069209;28;19909;-82
2021/05/23 07:11:51;;;;;;;;;;;18.60;99.90;;;;;;5068929;28;19912;-82
2021/05/23 07:14:16;;;;;;;;;;;19.50;99.90;;;;;;5068819;28;19908;-82
2021/05/23 07:16:42;;;;;;;;;;;19.10;99.90;;;;;;5068973;28;19908;-82
2021/05/23 07:19:08;;;;;;;;;;;17.80;99.90;;;;;;5068801;28;20270;-82
2021/05/23 07:21:33;;;;;;;;;;;19.50;99.90;;;;;;5067670;28;20419;-83
2021/05/23 07:24:00;;;;;;;;;;;19.00;99.90;;;;;;5068116;28;20371;-82
2021/05/23 07:26:25;;;;;;;;;;;18.30;99.90;;;;;;5068818;28;19995;-82
2021/05/23 07:28:52;;;;;;;;;;;17.70;99.90;;;;;;5072730;28;19909;-82
2021/05/23 07:31:18;;;;;;;;;;;16.30;99.90;;;;;;5072803;28;19927;-82
2021/05/23 07:33:43;;;;;;;;;;;16.90;99.90;;;;;;5072869;28;19934;-82
2021/05/23 07:36:10;;;;;;;;;;;18.30;99.90;;;;;;5072572;28;19908;-82
2021/05/23 07:38:36;;;;;;;;;;;20.90;99.90;;;;;;5072831;28;19908;-82
2021/05/23 07:41:02;;;;;;;;;;;24.10;99.90;;;;;;5072679;28;19908;-82
2021/05/23 07:43:27;;;;;;;;;;;24.80;99.90;;;;;;5072458;28;20344;-82
2021/05/23 07:45:53;;;;;;;;;;;24.80;99.90;;;;;;5072707;28;19905;-83
2021/05/23 07:48:19;;;;;;;;;;;23.00;99.90;;;;;;5072204;28;19912;-83
2021/05/23 07:50:47;;;;;;;;;;;24.80;99.90;;;;;;5071283;28;20003;-83
2021/05/23 07:53:12;;;;;;;;;;;23.30;99.90;;;;;;5072548;28;19953;-83
2021/05/23 07:55:38;;;;;;;;;;;23.50;99.90;;;;;;5072389;28;19912;-83
2021/05/23 07:58:04;;;;;;;;;;;23.30;99.90;;;;;;5072569;28;19944;-83
2021/05/23 08:00:30;;;;;;;;;;;24.20;99.90;;;;;;5072393;28;19909;-83
2021/05/23 08:02:55;;;;;;;;;;;25.70;99.90;;;;;;5072352;28;19908;-83
2021/05/23 08:05:21;;;;;;;;;;;27.90;99.90;;;;;;5072384;28;19908;-83
2021/05/23 08:07:46;;;;;;;;;;;25.10;99.90;;;;;;5070699;28;19912;-83
2021/05/23 08:10:13;;;;;;;;;;;23.80;99.90;;;;;;5072354;28;19908;-82
2021/05/23 08:12:39;;;;;;;;;;;22.10;99.90;;;;;;5072048;28;19958;-83
2021/05/23 08:15:05;;;;;;;;;;;21.00;99.90;;;;;;5072225;28;20712;-83
2021/05/23 08:17:31;;;;;;;;;;;27.10;99.90;;;;;;5072123;28;20459;-83
2021/05/23 08:19:56;;;;;;;;;;;28.60;98.60;;;;;;5072401;28;19995;-83
2021/05/23 08:22:22;;;;;;;;;;;27.40;98.10;;;;;;5072157;28;19957;-83
2021/05/23 08:24:48;;;;;;;;;;;30.00;98.30;;;;;;5070678;28;20399;-83
2021/05/23 08:27:13;;;;;;;;;;;27.40;94.10;;;;;;5072149;28;19915;-83
2021/05/23 08:29:39;;;;;;;;;;;28.60;92.90;;;;;;5071836;28;19909;-83
2021/05/23 08:32:05;;;;;;;;;;;27.60;94.60;;;;;;5069740;28;19909;-83
2021/05/23 08:34:30;;;;;;;;;;;23.80;95.60;;;;;;5050650;28;19913;-83
2021/05/23 08:36:56;;;;;;;;;;;27.80;94.20;;;;;;5051295;28;19909;-83
2021/05/23 08:39:22;;;;;;;;;;;24.10;95.50;;;;;;5050876;28;19931;-84
2021/05/23 08:41:47;;;;;;;;;;;29.20;93.80;;;;;;5051704;28;19905;-84
2021/05/23 08:44:19;;;;;;;;;;;23.70;94.90;;;;;;5051645;28;20013;-83
2021/05/23 08:46:51;;;;;;;;;;;26.50;97.10;;;;;;5051422;28;20380;-83
2021/05/23 08:49:18;;;;;;;;;;;22.20;96.70;;;;;;5051614;28;19913;-83
2021/05/23 08:51:45;;;;;;;;;;;25.70;95.80;;;;;;5051558;28;19909;-84
2021/05/23 08:54:11;;;;;;;;;;;23.40;95.40;;;;;;5051374;28;19908;-84
2021/05/23 08:56:37;;;;;;;;;;;26.10;91.70;;;;;;5050172;28;19912;-83
2021/05/23 08:59:03;;;;;;;;;;;22.60;94.70;;;;;;5051230;28;19987;-83
2021/05/23 09:01:29;;;;;;;;;;;19.70;98.50;;;;;;5051144;28;19916;-83
2021/05/23 09:03:58;;;;;;;;;;;20.10;96.10;;;;;;5051081;28;19908;-83
2021/05/23 09:06:28;;;;;;;;;;;21.00;98.10;;;;;;5051445;28;19909;-83
2021/05/23 09:09:00;;;;;;;;;;;22.00;94.90;;;;;;5050980;28;19909;-83
2021/05/23 09:11:26;;;;;;;;;;;19.30;97.90;;;;;;5050164;28;19916;-83
2021/05/23 09:13:53;;;;;;;;;;;19.30;98.70;;;;;;5050844;28;19904;-83
2021/05/23 09:16:18;;;;;;;;;;;18.40;99.20;;;;;;5051061;28;19904;-83
2021/05/23 09:18:55;;;;;;;;;;;24.10;96.40;;;;;;5050971;28;20012;-83
2021/05/23 09:21:25;;;;;;;;;;;30.20;89.70;;;;;;5050897;28;19909;-83
2021/05/23 09:23:52;;;;;;;;;;;30.20;80.50;;;;;;5051042;28;19908;-84
2021/05/23 09:26:20;;;;;;;;;;;30.10;76.20;;;;;;5049517;28;19905;-84
2021/05/23 09:28:46;;;;;;;;;;;24.30;87.30;;;;;;5050731;28;19947;-83
2021/05/23 09:31:13;;;;;;;;;;;20.70;95.50;;;;;;5049583;28;19911;-83
2021/05/23 09:33:42;;;;;;;;;;;27.00;98.40;;;;;;5050566;28;19959;-83
2021/05/23 09:36:08;;;;;;;;;;;28.80;85.10;;;;;;5050963;28;20450;-83
2021/05/23 09:38:33;;;;;;;;;;;27.50;90.30;;;;;;5051144;28;19944;-83
2021/05/23 09:40:59;;;;;;;;;;;30.30;77.70;;;;;;5050900;28;19908;-84
2021/05/23 09:43:26;;;;;;;;;;;32.30;70.40;;;;;;5050793;28;19919;-84
2021/05/23 09:45:53;;;;;;;;;;;33.20;65.20;;;;;;5050816;28;19944;-84
2021/05/23 09:48:22;;;;;;;;;;;33.10;60.30;;;;;;5050528;28;19923;-84
2021/05/23 09:50:49;;;;;;;;;;;33.10;56.60;;;;;;5050543;28;19908;-84
2021/05/23 09:53:27;;;;;;;;;;;31.10;58.90;;;;;;5050603;28;19916;-83
2021/05/23 09:55:53;;;;;;;;;;;32.00;58.70;;;;;;5050744;28;19905;-83
2021/05/23 09:58:39;;;;;;;;;;;29.50;59.30;;;;;;5050208;28;19955;-84
2021/05/23 10:01:05;;;;;;;;;;;30.20;60.60;;;;;;5050585;28;19909;-83
2021/05/23 10:03:32;;;;;;;;;;;28.30;63.10;;;;;;5048788;28;19909;-84
2021/05/23 10:05:58;;;;;;;;;;;27.00;68.50;;;;;;5049147;28;20280;-83
2021/05/23 10:08:24;;;;;;;;;;;23.80;74.00;;;;;;5050076;28;19916;-83
2021/05/23 10:10:50;;;;;;;;;;;21.00;83.30;;;;;;5050313;28;20307;-83
2021/05/23 10:13:17;;;;;;;;;;;20.20;85.40;;;;;;5050083;28;20326;-83
2021/05/23 10:15:43;;;;;;;;;;;18.90;90.90;;;;;;5049976;28;19940;-83
2021/05/23 10:18:08;;;;;;;;;;;18.70;92.10;;;;;;5049838;28;20332;-83
2021/05/23 10:20:34;;;;;;;;;;;18.60;92.70;;;;;;5050208;28;19931;-83
2021/05/23 10:23:05;;;;;;;;;;;18.50;92.40;;;;;;5049922;28;20450;-84
2021/05/23 10:25:31;;;;;;;;;;;18.60;91.50;;;;;;5048573;28;19967;-83
2021/05/23 10:27:59;;;;;;;;;;;21.20;90.00;;;;;;5049949;28;19974;-84
2021/05/23 10:30:25;;;;;;;;;;;25.40;75.70;;;;;;5049644;28;19910;-84
2021/05/23 10:32:50;;;;;;;;;;;27.10;74.60;;;;;;5058614;28;19915;-84
2021/05/23 10:35:32;;;;;;;;;;;29.10;71.10;;;;;;5068373;28;19908;-84
2021/05/23 10:38:06;;;;;;;;;;;29.60;67.10;;;;;;5069667;28;19905;-84
2021/05/23 10:40:31;;;;;;;;;;;29.70;65.40;;;;;;5069722;28;19908;-84
2021/05/23 10:42:58;;;;;;;;;;;28.70;62.50;;;;;;5069464;28;19950;-84
2021/05/23 10:45:27;;;;;;;;;;;29.20;61.90;;;;;;5069670;28;20731;-84
2021/05/23 10:47:55;;;;;;;;;;;22.60;70.00;;;;;;5068138;28;19908;-84
2021/05/23 10:50:33;;;;;;;;;;;21.90;78.60;;;;;;5069796;28;19908;-84
2021/05/23 10:52:59;;;;;;;;;;;28.20;67.40;;;;;;5069408;28;19915;-84
2021/05/23 10:55:25;;;;;;;;;;;25.70;69.40;;;;;;5069823;28;19991;-84
2021/05/23 10:57:54;;;;;;;;;;;25.10;63.90;;;;;;5068074;28;20728;-83
2021/05/23 11:00:22;;;;;;;;;;;25.80;67.80;;;;;;5068252;28;20475;-83
2021/05/23 11:02:48;;;;;;;;;;;26.20;66.50;;;;;;5073171;28;19904;-83
2021/05/23 11:05:15;;;;;;;;;;;30.50;62.90;;;;;;5074143;28;19944;-83
2021/05/23 11:07:52;;;;;;;;;;;29.50;61.80;;;;;;5073625;28;19951;-83
2021/05/23 11:10:19;;;;;;;;;;;23.80;71.60;;;;;;5072324;28;19957;-83
2021/05/23 11:12:50;;;;;;;;;;;22.00;79.30;;;;;;5073472;28;20384;-83
2021/05/23 11:15:17;;;;;;;;;;;23.90;75.50;;;;;;5073785;28;20007;-83
2021/05/23 11:17:43;;;;;;;;;;;29.10;63.10;;;;;;5073296;28;19916;-83
2021/05/23 11:20:15;;;;;;;;;;;29.50;63.90;;;;;;5073344;28;19905;-83
2021/05/23 11:22:42;;;;;;;;;;;30.30;60.00;;;;;;5073518;28;19908;-83
2021/05/23 11:25:08;;;;;;;;;;;23.70;65.10;;;;;;5073146;28;19911;-83
2021/05/23 11:27:33;;;;;;;;;;;21.50;74.50;;;;;;5073031;28;20296;-83
2021/05/23 11:29:59;;;;;;;;;;;21.30;71.70;;;;;;5072547;28;19995;-83
2021/05/23 11:32:25;;;;;;;;;;;21.30;74.00;;;;;;5071485;28;20027;-83
2021/05/23 11:34:50;;;;;;;;;;;21.60;78.00;;;;;;5072911;28;19908;-83
2021/05/23 11:37:16;;;;;;;;;;;21.20;76.80;;;;;;5072662;28;19908;-84
2021/05/23 11:39:42;;;;;;;;;;;22.40;73.60;;;;;;5072746;28;19915;-83
2021/05/23 11:42:09;;;;;;;;;;;22.20;73.00;;;;;;5072545;28;20280;-84
2021/05/23 11:44:38;;;;;;;;;;;20.90;79.30;;;;;;5072883;28;20141;-83
2021/05/23 11:47:04;;;;;;;;;;;20.80;80.10;;;;;;5072382;28;20070;-83
2021/05/23 11:49:31;;;;;;;;;;;20.70;80.80;;;;;;5072760;28;20002;-83
2021/05/23 11:52:01;;;;;;;;;;;20.60;80.10;;;;;;5072838;28;19939;-83
2021/05/23 11:54:26;;;;;;;;;;;20.80;79.40;;;;;;5072584;28;19909;-83
2021/05/23 11:56:52;;;;;;;;;;;20.80;81.20;;;;;;5072371;28;19969;-83
2021/05/23 11:59:18;;;;;;;;;;;20.70;77.20;;;;;;5071926;28;20330;-83
2021/05/23 12:01:52;;;;;;;;;;;20.80;75.50;;;;;;5071939;28;19904;-83
2021/05/23 12:04:18;;;;;;;;;;;21.50;77.70;;;;;;5072268;28;20658;-83
2021/05/23 12:06:51;;;;;;;;;;;20.30;77.10;;;;;;5072446;28;19916;-83
2021/05/23 12:09:18;;;;;;;;;;;21.00;77.40;;;;;;5072354;28;19908;-83
2021/05/23 12:11:49;;;;;;;;;;;20.30;77.80;;;;;;5070522;28;19904;-83
2021/05/23 12:14:24;;;;;;;;;;;20.80;77.30;;;;;;5072517;28;20033;-83
2021/05/23 12:17:03;;;;;;;;;;;21.50;72.40;;;;;;5072312;28;19915;-83
2021/05/23 12:19:56;;;;;;;;;;;21.60;86.10;;;;;;5072091;28;19909;-83
2021/05/23 12:22:23;;;;;;;;;;;21.50;73.30;;;;;;5072120;28;19904;-83
2021/05/23 12:24:59;;;;;;;;;;;20.90;76.40;;;;;;5071967;28;19904;-83
2021/05/23 12:27:33;;;;;;;;;;;20.60;78.70;;;;;;5072054;28;19908;-83
2021/05/23 12:30:11;;;;;;;;;;;20.40;79.70;;;;;;5071898;28;19908;-83
2021/05/23 12:32:44;;;;;;;;;;;20.30;77.90;;;;;;5064822;28;19958;-83
2021/05/23 12:35:10;;;;;;;;;;;20.50;79.70;;;;;;5051902;28;19908;-83
2021/05/23 12:37:36;;;;;;;;;;;20.90;79.70;;;;;;5051535;28;20677;-83
2021/05/23 12:40:12;;;;;;;;;;;20.20;78.80;;;;;;5051787;28;19909;-83
2021/05/23 12:42:38;;;;;;;;;;;19.90;79.20;;;;;;5050152;28;19908;-83
2021/05/23 12:45:07;;;;;;;;;;;19.70;78.50;;;;;;5050170;28;19909;-83
2021/05/23 12:47:32;;;;;;;;;;;20.30;77.80;;;;;;5050133;28;20353;-83
2021/05/23 12:49:58;;;;;;;;;;;20.50;77.50;;;;;;5051678;28;19951;-83
2021/05/23 12:52:24;;;;;;;;;;;21.00;76.00;;;;;;5051619;28;20015;-83
2021/05/23 12:54:50;;;;;;;;;;;20.50;77.30;;;;;;5051315;28;19974;-83
2021/05/23 12:57:16;;;;;;;;;;;20.60;76.30;;;;;;5051447;28;19911;-83
2021/05/23 12:59:42;;;;;;;;;;;20.80;76.50;;;;;;5051725;28;19966;-84
2021/05/23 13:02:09;;;;;;;;;;;21.00;74.70;;;;;;5051644;28;19940;-83
2021/05/23 13:04:35;;;;;;;;;;;21.40;76.30;;;;;;5051664;28;19924;-83
2021/05/23 13:07:02;;;;;;;;;;;21.90;71.90;;;;;;5051207;28;19916;-83
2021/05/23 13:09:38;;;;;;;;;;;22.10;75.40;;;;;;5051519;28;20277;-83
2021/05/23 13:12:06;;;;;;;;;;;21.50;74.50;;;;;;5051173;28;19909;-83
2021/05/23 13:14:33;;;;;;;;;;;21.20;76.30;;;;;;5051573;28;19904;-83
2021/05/23 13:17:00;;;;;;;;;;;20.70;77.60;;;;;;5050949;28;19939;-83
2021/05/23 13:19:27;;;;;;;;;;;20.80;76.70;;;;;;5051330;28;19986;-83
2021/05/23 13:21:54;;;;;;;;;;;20.70;75.30;;;;;;5049770;28;19905;-83
2021/05/23 13:24:22;;;;;;;;;;;20.40;79.00;;;;;;5050459;28;20278;-83
2021/05/23 13:26:49;;;;;;;;;;;19.80;79.10;;;;;;5049864;28;19905;-83
2021/05/23 13:29:15;;;;;;;;;;;20.20;81.20;;;;;;5050824;28;20399;-83
2021/05/23 13:31:41;;;;;;;;;;;20.40;80.30;;;;;;5049609;28;19909;-83
2021/05/23 13:34:07;;;;;;;;;;;21.00;76.80;;;;;;5050840;28;19908;-83
2021/05/23 13:36:33;;;;;;;;;;;21.20;74.90;;;;;;5050934;28;19904;-83
2021/05/23 13:38:59;;;;;;;;;;;21.00;75.50;;;;;;5049241;28;20341;-83
2021/05/23 13:41:24;;;;;;;;;;;20.80;74.00;;;;;;5050055;28;19909;-83
2021/05/23 13:43:50;;;;;;;;;;;20.80;74.50;;;;;;5050326;28;19944;-83
2021/05/23 13:46:15;;;;;;;;;;;20.50;74.90;;;;;;5050304;28;19916;-83
2021/05/23 13:48:41;;;;;;;;;;;19.40;78.30;;;;;;5050298;28;20016;-83
2021/05/23 13:51:07;;;;;;;;;;;19.30;79.00;;;;;;5073056;28;19904;-83
2021/05/23 13:53:32;;;;;;;;;;;19.00;79.40;;;;;;5090534;28;19939;-83
2021/05/23 13:55:58;;;;;;;;;;;19.00;79.10;;;;;;5088833;28;19904;-83
2021/05/23 13:58:24;;;;;;;;;;;19.20;78.00;;;;;;5089964;28;19912;-83
2021/05/23 14:00:49;;;;;;;;;;;19.50;79.20;;;;;;5089994;28;19908;-82
2021/05/23 14:03:16;;;;;;;;;;;18.40;79.80;;;;;;5090123;28;19904;-83
2021/05/23 14:05:46;;;;;;;;;;;19.40;78.30;;;;;;5090164;28;19938;-83
2021/05/23 14:08:12;;;;;;;;;;;19.50;80.10;;;;;;5089929;28;19911;-83
2021/05/23 14:10:38;;;;;;;;;;;19.40;79.80;;;;;;5089931;28;19998;-83
2021/05/23 14:13:04;;;;;;;;;;;19.60;79.60;;;;;;5090051;28;19998;-82
2021/05/23 14:15:29;;;;;;;;;;;19.80;81.50;;;;;;5090195;28;20398;-82
2021/05/23 14:17:55;;;;;;;;;;;20.20;78.00;;;;;;5089717;28;19916;-83